createdAt,value
2023-06-07T04:04:13.496Z,18.45
2023-06-07T04:07:17.370Z,18.45
2023-06-07T04:10:20.512Z,17.98
2023-06-07T04:13:22.937Z,17.98
2023-06-07T04:16:25.280Z,17.93
2023-06-07T04:19:28.411Z,17.92
2023-06-07T04:22:31.612Z,17.99
2023-06-07T04:25:34.972Z,18.02
2023-06-07T04:28:41.803Z,18.15
2023-06-07T04:31:45.735Z,18.17
2023-06-07T04:34:48.826Z,18.19
2023-06-07T04:37:52.165Z,18.16
2023-06-07T04:40:54.942Z,18.13
2023-06-07T04:43:58.392Z,18.18
2023-06-07T04:47:08.037Z,18.22
2023-06-07T04:50:11.995Z,18.12
2023-06-07T04:53:19.048Z,18.27
2023-06-07T04:56:22.747Z,18.15
2023-06-07T04:59:25.921Z,18.22
2023-06-07T05:02:28.501Z,18.17
2023-06-07T05:05:31.081Z,18.27
2023-06-07T05:08:33.797Z,18.23
2023-06-07T05:11:36.306Z,18.24
2023-06-07T05:14:39.474Z,18.21
2023-06-07T05:17:41.913Z,18.33
2023-06-07T05:20:47.081Z,18.31
2023-06-07T05:23:49.479Z,18.36
2023-06-07T05:26:52.530Z,18.42
2023-06-07T05:29:54.773Z,18.42
2023-06-07T05:32:58.382Z,18.46
2023-06-07T05:36:01.768Z,18.44
2023-06-07T05:39:05.006Z,18.48
2023-06-07T05:42:07.929Z,18.37
2023-06-07T05:45:10.655Z,18.44
2023-06-07T05:48:13.058Z,18.49
2023-06-07T05:51:15.611Z,18.51
2023-06-07T05:54:18.853Z,18.55
2023-06-07T05:57:22.248Z,18.53
2023-06-07T06:00:25.153Z,18.58
2023-06-07T06:03:27.957Z,18.58
2023-06-07T06:06:30.206Z,18.64
2023-06-07T06:09:32.693Z,18.67
2023-06-07T06:12:35.093Z,18.73
2023-06-07T06:15:37.639Z,18.80
2023-06-07T06:18:41.517Z,18.74
2023-06-07T06:21:44.500Z,18.74
2023-06-07T06:24:46.800Z,18.75
2023-06-07T06:27:49.269Z,18.79
2023-06-07T06:30:51.500Z,18.78
2023-06-07T06:33:54.431Z,18.78
2023-06-07T06:36:58.282Z,18.81
2023-06-07T06:40:00.896Z,18.81
2023-06-07T06:43:03.048Z,18.89
2023-06-07T06:46:06.737Z,18.96
2023-06-07T06:49:12.612Z,19.01
2023-06-07T06:52:16.698Z,19.02
2023-06-07T06:55:19.021Z,19.10
2023-06-07T06:58:21.594Z,19.10
2023-06-07T07:01:24.043Z,19.11
2023-06-07T07:04:26.869Z,19.19
2023-06-07T07:07:29.150Z,19.23
2023-06-07T07:10:33.455Z,19.18
2023-06-07T07:13:35.971Z,19.20
2023-06-07T07:16:41.651Z,19.22
2023-06-07T07:19:44.061Z,19.28
2023-06-07T07:22:47.209Z,19.37
2023-06-07T07:25:49.472Z,19.37
2023-06-07T07:28:53.883Z,19.54
2023-06-07T07:31:56.656Z,19.42
2023-06-07T07:34:59.868Z,19.45
2023-06-07T07:38:03.483Z,19.46
2023-06-07T07:41:06.690Z,19.50
2023-06-07T07:44:08.911Z,19.51
2023-06-07T07:47:13.036Z,19.58
2023-06-07T07:50:16.786Z,19.61
2023-06-07T07:53:19.409Z,19.65
2023-06-07T07:56:24.527Z,19.60
2023-06-07T07:59:28.165Z,19.65
2023-06-07T08:02:31.016Z,19.71
2023-06-07T08:05:33.644Z,19.75
2023-06-07T08:08:35.885Z,19.86
2023-06-07T08:11:38.908Z,19.88
2023-06-07T08:14:41.232Z,19.88
2023-06-07T08:17:43.750Z,19.86
2023-06-07T08:20:46.021Z,19.89
2023-06-07T08:23:48.753Z,20.02
2023-06-07T08:26:51.107Z,19.99
2023-06-07T08:29:53.901Z,20.02
2023-06-07T08:32:56.486Z,20.08
2023-06-07T08:35:58.996Z,20.17
2023-06-07T08:39:02.564Z,20.16
2023-06-07T08:42:06.147Z,20.19
2023-06-07T08:45:08.582Z,20.30
2023-06-07T08:48:13.477Z,20.30
2023-06-07T08:51:17.893Z,20.29
2023-06-07T08:54:27.348Z,20.35
2023-06-07T08:57:32.019Z,20.48
2023-06-07T09:00:36.252Z,20.59
2023-06-07T09:03:38.452Z,20.58
2023-06-07T09:06:41.474Z,20.61
2023-06-07T09:09:46.968Z,20.74
2023-06-07T09:12:49.651Z,20.69
2023-06-07T09:15:53.731Z,20.79
2023-06-07T09:18:56.518Z,20.79
2023-06-07T09:21:58.698Z,20.81
2023-06-07T09:25:08.419Z,20.73
2023-06-07T09:28:12.435Z,20.72
2023-06-07T09:31:33.337Z,20.79
2023-06-07T09:34:35.771Z,20.79
2023-06-07T09:37:46.917Z,20.78
2023-06-07T09:40:52.474Z,20.91
2023-06-07T09:43:55.528Z,20.93
2023-06-07T09:47:03.088Z,20.90
2023-06-07T09:50:08.448Z,20.89
2023-06-07T09:53:10.605Z,20.84
2023-06-07T09:56:17.725Z,20.86
2023-06-07T09:59:20.031Z,20.82
2023-06-07T10:02:27.788Z,20.81
2023-06-07T10:05:30.233Z,20.79
2023-06-07T10:08:32.753Z,20.74
2023-06-07T10:11:37.549Z,20.81
2023-06-07T10:14:41.829Z,20.82
2023-06-07T10:17:56.825Z,20.97
2023-06-07T10:21:03.716Z,21.01
2023-06-07T10:24:10.930Z,21.05
2023-06-07T10:27:18.240Z,21.10
2023-06-07T10:30:25.479Z,21.30
2023-06-07T10:33:28.260Z,21.35
2023-06-07T10:36:31.020Z,21.38
2023-06-07T10:39:33.223Z,21.43
2023-06-07T10:42:36.416Z,21.46
2023-06-07T10:45:38.681Z,21.43
2023-06-07T10:48:44.813Z,21.55
2023-06-07T10:51:54.803Z,21.50
2023-06-07T10:54:57.668Z,21.60
2023-06-07T10:58:01.352Z,21.56
2023-06-07T11:01:24.990Z,21.57
2023-06-07T11:04:39.605Z,21.58
2023-06-07T11:07:48.880Z,21.68
2023-06-07T11:10:51.572Z,21.66
2023-06-07T11:13:54.354Z,21.68
2023-06-07T11:16:57.204Z,21.73
2023-06-07T11:20:00.872Z,21.77
2023-06-07T11:23:26.182Z,21.79
2023-06-07T11:26:28.960Z,21.78
2023-06-07T11:29:31.332Z,21.86
2023-06-07T11:32:39.769Z,21.95
2023-06-07T11:35:43.422Z,22.00
2023-06-07T11:38:50.500Z,21.98
2023-06-07T11:41:52.689Z,21.94
2023-06-07T11:44:55.591Z,22.03
2023-06-07T11:48:01.824Z,21.91
2023-06-07T11:51:04.502Z,21.87
2023-06-07T11:54:07.466Z,21.85
2023-06-07T11:57:10.995Z,21.90
2023-06-07T12:00:18.783Z,21.92
2023-06-07T12:03:23.140Z,21.99
2023-06-07T12:06:27.282Z,22.07
2023-06-07T12:09:29.553Z,22.18
2023-06-07T12:12:32.140Z,22.31
2023-06-07T12:15:35.794Z,22.44
2023-06-07T12:18:39.334Z,22.48
2023-06-07T12:21:41.564Z,22.50
2023-06-07T12:24:43.984Z,22.50
2023-06-07T12:27:50.044Z,22.49
2023-06-07T12:30:53.334Z,22.49
2023-06-07T12:34:03.615Z,22.54
2023-06-07T12:37:06.449Z,22.47
2023-06-07T12:40:09.350Z,22.57
2023-06-07T12:43:11.906Z,22.61
2023-06-07T12:46:14.350Z,22.63
2023-06-07T12:49:16.816Z,22.71
2023-06-07T12:52:19.277Z,22.88
2023-06-07T12:55:21.979Z,22.79
2023-06-07T12:58:24.171Z,22.73
2023-06-07T13:01:26.774Z,22.81
2023-06-07T13:04:31.013Z,22.75
2023-06-07T13:07:34.908Z,22.84
2023-06-07T13:10:37.732Z,22.89
2023-06-07T13:13:40.231Z,22.88
2023-06-07T13:16:44.452Z,22.82
2023-06-07T13:19:47.514Z,22.89
2023-06-07T13:22:49.935Z,22.99
2023-06-07T13:25:52.364Z,22.95
2023-06-07T13:28:54.588Z,22.93
2023-06-07T13:31:57.300Z,22.93
2023-06-07T13:34:59.496Z,23.02
2023-06-07T13:38:01.935Z,23.05
2023-06-07T13:41:04.572Z,23.08
2023-06-07T13:44:17.283Z,23.18
2023-06-07T13:47:22.062Z,23.20
2023-06-07T13:50:24.617Z,23.11
2023-06-07T13:53:27.311Z,23.11
2023-06-07T13:56:30.831Z,23.08
2023-06-07T13:59:33.315Z,23.10
2023-06-07T14:02:36.122Z,23.05
2023-06-07T14:05:38.898Z,23.02
2023-06-07T14:08:41.086Z,22.98
2023-06-07T14:11:43.937Z,22.94
2023-06-07T14:14:46.227Z,22.95
2023-06-07T14:17:48.750Z,22.96
2023-06-07T14:20:51.073Z,22.95
2023-06-07T14:23:53.680Z,22.91
2023-06-07T14:26:55.862Z,22.89
2023-06-07T14:29:58.283Z,22.90
2023-06-07T14:33:00.548Z,22.88
2023-06-07T14:36:03.598Z,22.82
2023-06-07T14:39:05.777Z,22.77
2023-06-07T14:42:08.280Z,22.74
2023-06-07T14:45:11.039Z,22.69
2023-06-07T14:48:13.513Z,22.70
2023-06-07T14:51:16.596Z,22.60
2023-06-07T14:54:19.025Z,22.42
2023-06-07T14:57:21.431Z,22.32
2023-06-07T15:00:23.924Z,22.18
2023-06-07T15:03:26.181Z,22.13
2023-06-07T15:06:28.713Z,22.02
2023-06-07T15:09:33.978Z,21.98
2023-06-07T15:12:37.780Z,21.97
2023-06-07T15:15:39.990Z,21.91
2023-06-07T15:18:42.556Z,21.98
2023-06-07T15:21:44.800Z,21.93
2023-06-07T15:24:47.231Z,21.96
2023-06-07T15:27:49.367Z,21.97
2023-06-07T15:30:51.779Z,22.00
2023-06-07T15:33:55.804Z,22.07
2023-06-07T15:36:58.489Z,22.07
2023-06-07T15:40:00.739Z,22.09
2023-06-07T15:43:03.193Z,22.09
2023-06-07T15:46:05.804Z,22.13
2023-06-07T15:49:08.215Z,22.29
2023-06-07T15:52:10.588Z,22.29
2023-06-07T15:55:13.116Z,22.36
2023-06-07T15:58:18.557Z,22.33
2023-06-07T16:01:20.998Z,22.34
2023-06-07T16:04:23.510Z,22.36
2023-06-07T16:07:26.685Z,22.34
2023-06-07T16:10:29.133Z,22.39
2023-06-07T16:13:31.253Z,22.40
2023-06-07T16:16:34.689Z,22.41
2023-06-07T16:19:37.934Z,22.37
2023-06-07T16:22:40.377Z,22.42
2023-06-07T16:25:42.572Z,22.41
